METAR AND TAF INFORMATION
METAR FOR WABB
ADDS - METARS form results

(1751 UTC 18 January 2018)
Data provider http://aviationweather.gov/adds/metars/
 
Forecast for: WABB (BIAK/FRANS KAISI, ID)
Text: TAF WABB 181700Z 1818/2000 00000KT 9000 FEW018
Forecast period: 1800 to 2200 UTC 18 January 2018
Forecast type: FROM: standard forecast or significant change
Winds: calm
Visibility: 6 miles (9 km)
Clouds: few clouds at 1800 feet AGL
Weather: no significant weather forecast for this period
Text: BECMG 1822/1900 33006KT 9999
Forecast period: 2200 UTC 18 January 2018 to 0000 UTC 20 January 2018
Forecast type: BECOMING: Conditions expected to become as follows by 0000 UTC 19 January 2018
Winds: from the NNW (330 degrees) at 7 MPH (6 knots; 3.1 m/s)
Visibility: 6 or more miles (10+ km)
Clouds: few clouds at 1800 feet AGL
Weather: no significant weather forecast for this period

 AIRPORT MAP

 RUNWAY INFORMATION
Runway 11 Runway length 11715 ft Runway width 150 ft
Runway elevation 36 ft Runway displaced threshold 0 ft Runway heading 109
Runway 29 Runway length 11715 ft Runway width 150 ft
Runway elevation 25 ft Runway displaced threshold 0 ft Runway heading 289

 AIRPORT FREQUENCIES
Type APP Name BIAK APP Frequency 121.2 MHZ
Type ATIS Name ATIS Frequency 126.5 MHZ
Type INFO Name BIAK INFO Frequency 295.6 MHZ
Type TWR Name TWR Frequency 118.1 MHZ

 AIRPORT NEAR NAVIGATION AIDS
Type VOR-DME Name Biak Frequency 112500 KHZ
Type NDB Name Biak Frequency 230 KHZ



v2.6.1